sensor_id;sensor_type;location;lat;lon;timestamp;P1;durP1;ratioP1;P2;durP2;ratioP2
17714;SDS011;8977;50.902;4.314;2023-12-04T00:00:46;8.17;;;5.90;;
17714;SDS011;8977;50.902;4.314;2023-12-04T00:03:13;9.27;;;6.47;;
17714;SDS011;8977;50.902;4.314;2023-12-04T00:05:42;9.57;;;6.53;;
17714;SDS011;8977;50.902;4.314;2023-12-04T00:08:09;9.93;;;6.17;;
17714;SDS011;8977;50.902;4.314;2023-12-04T00:10:37;9.00;;;6.50;;
17714;SDS011;8977;50.902;4.314;2023-12-04T00:13:04;8.97;;;6.50;;
17714;SDS011;8977;50.902;4.314;2023-12-04T00:15:31;9.83;;;6.87;;
17714;SDS011;8977;50.902;4.314;2023-12-04T00:17:58;9.17;;;6.80;;
17714;SDS011;8977;50.902;4.314;2023-12-04T00:20:25;8.40;;;6.10;;
17714;SDS011;8977;50.902;4.314;2023-12-04T00:22:52;9.33;;;6.50;;
17714;SDS011;8977;50.902;4.314;2023-12-04T00:25:19;9.67;;;6.97;;
17714;SDS011;8977;50.902;4.314;2023-12-04T00:27:47;8.43;;;6.07;;
17714;SDS011;8977;50.902;4.314;2023-12-04T00:30:14;9.17;;;6.20;;
17714;SDS011;8977;50.902;4.314;2023-12-04T00:32:41;9.40;;;6.40;;
17714;SDS011;8977;50.902;4.314;2023-12-04T00:35:09;9.07;;;6.60;;
17714;SDS011;8977;50.902;4.314;2023-12-04T00:37:36;8.10;;;5.50;;
17714;SDS011;8977;50.902;4.314;2023-12-04T00:40:04;9.00;;;6.27;;
17714;SDS011;8977;50.902;4.314;2023-12-04T00:42:32;8.67;;;6.30;;
17714;SDS011;8977;50.902;4.314;2023-12-04T00:45:01;8.63;;;5.93;;
17714;SDS011;8977;50.902;4.314;2023-12-04T00:47:28;8.77;;;6.10;;
17714;SDS011;8977;50.902;4.314;2023-12-04T00:49:55;8.33;;;5.97;;
17714;SDS011;8977;50.902;4.314;2023-12-04T00:52:22;8.33;;;5.63;;
17714;SDS011;8977;50.902;4.314;2023-12-04T00:54:49;9.73;;;6.23;;
17714;SDS011;8977;50.902;4.314;2023-12-04T00:57:17;7.60;;;5.83;;
17714;SDS011;8977;50.902;4.314;2023-12-04T00:59:44;8.37;;;5.77;;
17714;SDS011;8977;50.902;4.314;2023-12-04T01:02:12;7.97;;;5.57;;
17714;SDS011;8977;50.902;4.314;2023-12-04T01:04:39;8.10;;;6.00;;
17714;SDS011;8977;50.902;4.314;2023-12-04T01:07:07;9.03;;;5.97;;
17714;SDS011;8977;50.902;4.314;2023-12-04T01:09:34;10.03;;;6.07;;
17714;SDS011;8977;50.902;4.314;2023-12-04T01:12:01;8.77;;;5.80;;
17714;SDS011;8977;50.902;4.314;2023-12-04T01:14:28;7.53;;;5.70;;
17714;SDS011;8977;50.902;4.314;2023-12-04T01:16:55;8.37;;;5.83;;
17714;SDS011;8977;50.902;4.314;2023-12-04T01:19:24;8.67;;;6.00;;
17714;SDS011;8977;50.902;4.314;2023-12-04T01:21:51;7.73;;;5.57;;
17714;SDS011;8977;50.902;4.314;2023-12-04T01:24:18;9.23;;;5.80;;
17714;SDS011;8977;50.902;4.314;2023-12-04T01:26:45;9.07;;;5.80;;
17714;SDS011;8977;50.902;4.314;2023-12-04T01:29:12;7.13;;;5.30;;
17714;SDS011;8977;50.902;4.314;2023-12-04T01:31:39;8.30;;;5.60;;
17714;SDS011;8977;50.902;4.314;2023-12-04T01:34:06;8.00;;;5.77;;
17714;SDS011;8977;50.902;4.314;2023-12-04T01:36:34;8.37;;;6.20;;
17714;SDS011;8977;50.902;4.314;2023-12-04T01:39:02;7.67;;;5.90;;
17714;SDS011;8977;50.902;4.314;2023-12-04T01:41:29;9.00;;;5.60;;
17714;SDS011;8977;50.902;4.314;2023-12-04T01:43:56;7.07;;;5.17;;
17714;SDS011;8977;50.902;4.314;2023-12-04T01:46:23;7.53;;;5.70;;
17714;SDS011;8977;50.902;4.314;2023-12-04T01:48:51;8.97;;;5.70;;
17714;SDS011;8977;50.902;4.314;2023-12-04T01:51:18;7.33;;;5.43;;
17714;SDS011;8977;50.902;4.314;2023-12-04T01:53:47;6.90;;;5.07;;
17714;SDS011;8977;50.902;4.314;2023-12-04T01:56:15;6.87;;;5.07;;
17714;SDS011;8977;50.902;4.314;2023-12-04T01:58:43;7.67;;;5.33;;
17714;SDS011;8977;50.902;4.314;2023-12-04T02:01:11;6.43;;;4.63;;
17714;SDS011;8977;50.902;4.314;2023-12-04T02:03:38;8.37;;;5.43;;
17714;SDS011;8977;50.902;4.314;2023-12-04T02:06:07;8.27;;;5.50;;
17714;SDS011;8977;50.902;4.314;2023-12-04T02:08:35;6.17;;;4.77;;
17714;SDS011;8977;50.902;4.314;2023-12-04T02:11:04;8.40;;;6.00;;
17714;SDS011;8977;50.902;4.314;2023-12-04T02:13:31;7.63;;;5.33;;
17714;SDS011;8977;50.902;4.314;2023-12-04T02:16:00;6.60;;;4.90;;
17714;SDS011;8977;50.902;4.314;2023-12-04T02:18:30;7.63;;;4.70;;
17714;SDS011;8977;50.902;4.314;2023-12-04T02:20:57;6.47;;;4.63;;
17714;SDS011;8977;50.902;4.314;2023-12-04T02:23:26;6.37;;;4.90;;
17714;SDS011;8977;50.902;4.314;2023-12-04T02:25:54;6.60;;;4.73;;
17714;SDS011;8977;50.902;4.314;2023-12-04T02:28:25;6.07;;;4.57;;
17714;SDS011;8977;50.902;4.314;2023-12-04T02:30:57;7.17;;;4.53;;
17714;SDS011;8977;50.902;4.314;2023-12-04T02:33:26;6.23;;;4.10;;
17714;SDS011;8977;50.902;4.314;2023-12-04T02:35:53;6.07;;;4.40;;
17714;SDS011;8977;50.902;4.314;2023-12-04T02:38:22;7.03;;;4.77;;
17714;SDS011;8977;50.902;4.314;2023-12-04T02:40:49;7.13;;;4.80;;
17714;SDS011;8977;50.902;4.314;2023-12-04T02:43:18;6.90;;;5.00;;
17714;SDS011;8977;50.902;4.314;2023-12-04T02:45:45;4.93;;;4.13;;
17714;SDS011;8977;50.902;4.314;2023-12-04T02:48:12;6.63;;;4.90;;
17714;SDS011;8977;50.902;4.314;2023-12-04T02:50:39;6.73;;;4.53;;
17714;SDS011;8977;50.902;4.314;2023-12-04T02:53:06;5.87;;;4.50;;
17714;SDS011;8977;50.902;4.314;2023-12-04T02:55:33;5.67;;;4.40;;
17714;SDS011;8977;50.902;4.314;2023-12-04T02:57:59;6.60;;;4.47;;
17714;SDS011;8977;50.902;4.314;2023-12-04T03:00:28;5.97;;;4.53;;
17714;SDS011;8977;50.902;4.314;2023-12-04T03:02:55;9.83;;;5.23;;
17714;SDS011;8977;50.902;4.314;2023-12-04T03:05:22;6.33;;;4.47;;
17714;SDS011;8977;50.902;4.314;2023-12-04T03:07:49;6.40;;;4.20;;
17714;SDS011;8977;50.902;4.314;2023-12-04T03:10:16;6.50;;;4.27;;
17714;SDS011;8977;50.902;4.314;2023-12-04T03:12:43;4.83;;;4.00;;
17714;SDS011;8977;50.902;4.314;2023-12-04T03:15:10;6.80;;;4.40;;
17714;SDS011;8977;50.902;4.314;2023-12-04T03:17:39;5.60;;;4.13;;
17714;SDS011;8977;50.902;4.314;2023-12-04T03:20:06;7.17;;;4.47;;
17714;SDS011;8977;50.902;4.314;2023-12-04T03:22:34;5.57;;;4.13;;
17714;SDS011;8977;50.902;4.314;2023-12-04T03:25:02;5.27;;;3.90;;
17714;SDS011;8977;50.902;4.314;2023-12-04T03:27:30;5.40;;;4.03;;
17714;SDS011;8977;50.902;4.314;2023-12-04T03:29:57;5.30;;;3.90;;
17714;SDS011;8977;50.902;4.314;2023-12-04T03:32:24;6.17;;;4.27;;
17714;SDS011;8977;50.902;4.314;2023-12-04T03:34:52;5.03;;;3.80;;
17714;SDS011;8977;50.902;4.314;2023-12-04T03:37:19;5.53;;;4.27;;
17714;SDS011;8977;50.902;4.314;2023-12-04T03:39:46;6.90;;;3.60;;
17714;SDS011;8977;50.902;4.314;2023-12-04T03:42:13;5.40;;;3.60;;
17714;SDS011;8977;50.902;4.314;2023-12-04T03:44:40;6.20;;;3.80;;
17714;SDS011;8977;50.902;4.314;2023-12-04T03:47:07;5.47;;;3.80;;
17714;SDS011;8977;50.902;4.314;2023-12-04T03:49:34;5.03;;;3.47;;
17714;SDS011;8977;50.902;4.314;2023-12-04T03:52:02;6.70;;;4.13;;
17714;SDS011;8977;50.902;4.314;2023-12-04T03:54:30;5.03;;;3.63;;
17714;SDS011;8977;50.902;4.314;2023-12-04T03:56:56;5.10;;;3.63;;
17714;SDS011;8977;50.902;4.314;2023-12-04T03:59:23;3.93;;;3.10;;
17714;SDS011;8977;50.902;4.314;2023-12-04T04:01:50;4.90;;;3.60;;
17714;SDS011;8977;50.902;4.314;2023-12-04T04:04:17;4.77;;;3.60;;
17714;SDS011;8977;50.902;4.314;2023-12-04T04:06:44;4.43;;;3.40;;
17714;SDS011;8977;50.902;4.314;2023-12-04T04:09:13;4.97;;;3.47;;
17714;SDS011;8977;50.902;4.314;2023-12-04T04:11:39;4.57;;;3.60;;
17714;SDS011;8977;50.902;4.314;2023-12-04T04:14:07;5.03;;;3.77;;
17714;SDS011;8977;50.902;4.314;2023-12-04T04:16:33;4.30;;;3.70;;
17714;SDS011;8977;50.902;4.314;2023-12-04T04:19:00;5.50;;;3.50;;
17714;SDS011;8977;50.902;4.314;2023-12-04T04:21:27;5.53;;;3.83;;
17714;SDS011;8977;50.902;4.314;2023-12-04T04:23:53;5.03;;;3.63;;
17714;SDS011;8977;50.902;4.314;2023-12-04T04:26:22;4.70;;;3.47;;
17714;SDS011;8977;50.902;4.314;2023-12-04T04:28:49;5.13;;;3.70;;
17714;SDS011;8977;50.902;4.314;2023-12-04T04:31:16;4.77;;;3.50;;
17714;SDS011;8977;50.902;4.314;2023-12-04T04:33:43;5.53;;;3.93;;
17714;SDS011;8977;50.902;4.314;2023-12-04T04:36:10;5.30;;;3.50;;
17714;SDS011;8977;50.902;4.314;2023-12-04T04:38:38;6.40;;;4.03;;
17714;SDS011;8977;50.902;4.314;2023-12-04T04:41:05;4.83;;;3.97;;
17714;SDS011;8977;50.902;4.314;2023-12-04T04:43:34;4.67;;;3.60;;
17714;SDS011;8977;50.902;4.314;2023-12-04T04:46:01;4.40;;;3.83;;
17714;SDS011;8977;50.902;4.314;2023-12-04T04:48:28;6.40;;;3.90;;
17714;SDS011;8977;50.902;4.314;2023-12-04T04:50:55;4.27;;;3.80;;
17714;SDS011;8977;50.902;4.314;2023-12-04T04:53:22;6.73;;;3.90;;
17714;SDS011;8977;50.902;4.314;2023-12-04T04:55:50;5.07;;;4.00;;
17714;SDS011;8977;50.902;4.314;2023-12-04T04:58:17;4.67;;;3.77;;
17714;SDS011;8977;50.902;4.314;2023-12-04T05:00:46;6.53;;;4.37;;
17714;SDS011;8977;50.902;4.314;2023-12-04T05:03:13;5.07;;;3.93;;
17714;SDS011;8977;50.902;4.314;2023-12-04T05:05:40;5.93;;;4.07;;
17714;SDS011;8977;50.902;4.314;2023-12-04T05:08:07;4.53;;;3.23;;
17714;SDS011;8977;50.902;4.314;2023-12-04T05:10:34;4.93;;;3.40;;
17714;SDS011;8977;50.902;4.314;2023-12-04T05:13:01;5.03;;;3.60;;
17714;SDS011;8977;50.902;4.314;2023-12-04T05:15:28;6.43;;;4.40;;
17714;SDS011;8977;50.902;4.314;2023-12-04T05:17:56;4.60;;;3.50;;
17714;SDS011;8977;50.902;4.314;2023-12-04T05:20:23;8.23;;;4.00;;
17714;SDS011;8977;50.902;4.314;2023-12-04T05:22:50;5.00;;;4.10;;
17714;SDS011;8977;50.902;4.314;2023-12-04T05:25:17;4.33;;;3.33;;
17714;SDS011;8977;50.902;4.314;2023-12-04T05:27:44;4.20;;;3.80;;
17714;SDS011;8977;50.902;4.314;2023-12-04T05:30:11;5.97;;;4.30;;
17714;SDS011;8977;50.902;4.314;2023-12-04T05:32:39;4.83;;;3.50;;
17714;SDS011;8977;50.902;4.314;2023-12-04T05:35:07;4.17;;;3.47;;
17714;SDS011;8977;50.902;4.314;2023-12-04T05:37:34;5.93;;;3.70;;
17714;SDS011;8977;50.902;4.314;2023-12-04T05:40:01;5.10;;;3.80;;
17714;SDS011;8977;50.902;4.314;2023-12-04T05:42:30;5.00;;;3.17;;
17714;SDS011;8977;50.902;4.314;2023-12-04T05:44:57;4.00;;;3.00;;
17714;SDS011;8977;50.902;4.314;2023-12-04T05:47:25;4.53;;;3.80;;
17714;SDS011;8977;50.902;4.314;2023-12-04T05:49:52;3.77;;;3.23;;
17714;SDS011;8977;50.902;4.314;2023-12-04T05:52:21;5.30;;;3.30;;
17714;SDS011;8977;50.902;4.314;2023-12-04T05:54:48;4.80;;;3.60;;
17714;SDS011;8977;50.902;4.314;2023-12-04T05:57:15;6.80;;;3.70;;
17714;SDS011;8977;50.902;4.314;2023-12-04T05:59:42;4.77;;;3.10;;
17714;SDS011;8977;50.902;4.314;2023-12-04T06:02:09;5.30;;;3.43;;
17714;SDS011;8977;50.902;4.314;2023-12-04T06:04:36;6.53;;;3.50;;
17714;SDS011;8977;50.902;4.314;2023-12-04T06:07:03;4.40;;;3.40;;
17714;SDS011;8977;50.902;4.314;2023-12-04T06:09:31;4.13;;;3.50;;
17714;SDS011;8977;50.902;4.314;2023-12-04T06:11:58;4.17;;;3.17;;
17714;SDS011;8977;50.902;4.314;2023-12-04T06:14:32;5.03;;;3.53;;
17714;SDS011;8977;50.902;4.314;2023-12-04T06:16:59;4.03;;;3.10;;
17714;SDS011;8977;50.902;4.314;2023-12-04T06:19:27;4.93;;;3.10;;
17714;SDS011;8977;50.902;4.314;2023-12-04T06:21:54;4.03;;;3.13;;
17714;SDS011;8977;50.902;4.314;2023-12-04T06:24:21;6.90;;;3.50;;
17714;SDS011;8977;50.902;4.314;2023-12-04T06:26:50;4.10;;;3.60;;
17714;SDS011;8977;50.902;4.314;2023-12-04T06:29:18;4.17;;;3.40;;
17714;SDS011;8977;50.902;4.314;2023-12-04T06:31:45;4.27;;;3.67;;
17714;SDS011;8977;50.902;4.314;2023-12-04T06:34:13;4.13;;;3.07;;
17714;SDS011;8977;50.902;4.314;2023-12-04T06:36:40;5.23;;;3.70;;
17714;SDS011;8977;50.902;4.314;2023-12-04T06:39:09;4.80;;;3.63;;
17714;SDS011;8977;50.902;4.314;2023-12-04T06:41:37;4.37;;;3.53;;
17714;SDS011;8977;50.902;4.314;2023-12-04T06:44:06;4.00;;;3.27;;
17714;SDS011;8977;50.902;4.314;2023-12-04T06:46:36;3.90;;;3.47;;
17714;SDS011;8977;50.902;4.314;2023-12-04T06:49:04;6.53;;;4.27;;
17714;SDS011;8977;50.902;4.314;2023-12-04T06:51:32;4.80;;;3.90;;
17714;SDS011;8977;50.902;4.314;2023-12-04T06:53:58;5.23;;;4.20;;
17714;SDS011;8977;50.902;4.314;2023-12-04T06:56:26;6.10;;;4.20;;
17714;SDS011;8977;50.902;4.314;2023-12-04T06:58:52;5.07;;;4.07;;
17714;SDS011;8977;50.902;4.314;2023-12-04T07:01:21;5.97;;;4.20;;
17714;SDS011;8977;50.902;4.314;2023-12-04T07:03:48;5.40;;;4.00;;
17714;SDS011;8977;50.902;4.314;2023-12-04T07:06:15;5.53;;;4.40;;
17714;SDS011;8977;50.902;4.314;2023-12-04T07:08:42;5.23;;;4.40;;
17714;SDS011;8977;50.902;4.314;2023-12-04T07:11:09;6.77;;;4.33;;
17714;SDS011;8977;50.902;4.314;2023-12-04T07:13:40;6.10;;;3.90;;
17714;SDS011;8977;50.902;4.314;2023-12-04T07:16:07;5.60;;;4.13;;
17714;SDS011;8977;50.902;4.314;2023-12-04T07:18:36;5.63;;;3.77;;
17714;SDS011;8977;50.902;4.314;2023-12-04T07:21:03;4.70;;;3.97;;
17714;SDS011;8977;50.902;4.314;2023-12-04T07:23:30;5.23;;;3.87;;
17714;SDS011;8977;50.902;4.314;2023-12-04T07:25:57;4.57;;;4.00;;
17714;SDS011;8977;50.902;4.314;2023-12-04T07:28:24;6.40;;;3.80;;
17714;SDS011;8977;50.902;4.314;2023-12-04T07:30:51;5.83;;;4.20;;
17714;SDS011;8977;50.902;4.314;2023-12-04T07:33:18;5.07;;;4.03;;
17714;SDS011;8977;50.902;4.314;2023-12-04T07:35:46;6.10;;;4.00;;
17714;SDS011;8977;50.902;4.314;2023-12-04T07:38:13;6.50;;;4.07;;
17714;SDS011;8977;50.902;4.314;2023-12-04T07:40:40;5.97;;;4.27;;
17714;SDS011;8977;50.902;4.314;2023-12-04T07:43:07;5.50;;;4.00;;
17714;SDS011;8977;50.902;4.314;2023-12-04T07:45:34;5.27;;;4.20;;
17714;SDS011;8977;50.902;4.314;2023-12-04T07:48:02;6.77;;;4.60;;
17714;SDS011;8977;50.902;4.314;2023-12-04T07:50:29;4.63;;;4.13;;
17714;SDS011;8977;50.902;4.314;2023-12-04T07:52:57;5.30;;;4.20;;
17714;SDS011;8977;50.902;4.314;2023-12-04T07:55:24;5.73;;;4.37;;
17714;SDS011;8977;50.902;4.314;2023-12-04T07:57:51;5.70;;;4.47;;
17714;SDS011;8977;50.902;4.314;2023-12-04T08:00:19;6.20;;;4.13;;
17714;SDS011;8977;50.902;4.314;2023-12-04T08:02:47;6.37;;;4.70;;
17714;SDS011;8977;50.902;4.314;2023-12-04T08:05:14;5.80;;;4.77;;
17714;SDS011;8977;50.902;4.314;2023-12-04T08:07:42;5.63;;;4.33;;
17714;SDS011;8977;50.902;4.314;2023-12-04T08:10:11;5.60;;;4.20;;
17714;SDS011;8977;50.902;4.314;2023-12-04T08:12:38;6.83;;;4.67;;
17714;SDS011;8977;50.902;4.314;2023-12-04T08:15:06;7.17;;;4.33;;
17714;SDS011;8977;50.902;4.314;2023-12-04T08:17:33;6.83;;;4.37;;
17714;SDS011;8977;50.902;4.314;2023-12-04T08:20:00;5.83;;;4.33;;
17714;SDS011;8977;50.902;4.314;2023-12-04T08:22:29;6.20;;;4.43;;
17714;SDS011;8977;50.902;4.314;2023-12-04T08:24:56;6.47;;;5.00;;
17714;SDS011;8977;50.902;4.314;2023-12-04T08:27:25;7.67;;;4.87;;
17714;SDS011;8977;50.902;4.314;2023-12-04T08:29:52;8.70;;;4.97;;
17714;SDS011;8977;50.902;4.314;2023-12-04T08:32:19;7.23;;;4.87;;
17714;SDS011;8977;50.902;4.314;2023-12-04T08:34:47;5.63;;;4.40;;
17714;SDS011;8977;50.902;4.314;2023-12-04T08:37:14;8.00;;;4.93;;
17714;SDS011;8977;50.902;4.314;2023-12-04T08:39:41;6.37;;;4.60;;
17714;SDS011;8977;50.902;4.314;2023-12-04T08:42:08;7.03;;;4.80;;
17714;SDS011;8977;50.902;4.314;2023-12-04T08:44:36;7.50;;;4.47;;
17714;SDS011;8977;50.902;4.314;2023-12-04T08:47:03;8.83;;;5.23;;
17714;SDS011;8977;50.902;4.314;2023-12-04T08:49:30;5.77;;;4.40;;
17714;SDS011;8977;50.902;4.314;2023-12-04T08:51:59;6.60;;;4.60;;
17714;SDS011;8977;50.902;4.314;2023-12-04T08:54:26;5.83;;;4.90;;
17714;SDS011;8977;50.902;4.314;2023-12-04T08:56:53;7.63;;;4.93;;
17714;SDS011;8977;50.902;4.314;2023-12-04T08:59:20;7.97;;;5.13;;
17714;SDS011;8977;50.902;4.314;2023-12-04T09:01:48;4.63;;;3.97;;
17714;SDS011;8977;50.902;4.314;2023-12-04T09:04:15;6.97;;;4.83;;
17714;SDS011;8977;50.902;4.314;2023-12-04T09:06:42;6.47;;;4.57;;
17714;SDS011;8977;50.902;4.314;2023-12-04T09:09:09;5.23;;;4.40;;
17714;SDS011;8977;50.902;4.314;2023-12-04T09:11:40;7.50;;;5.13;;
17714;SDS011;8977;50.902;4.314;2023-12-04T09:14:07;5.90;;;4.57;;
17714;SDS011;8977;50.902;4.314;2023-12-04T09:16:34;6.73;;;5.30;;
17714;SDS011;8977;50.902;4.314;2023-12-04T09:19:03;5.57;;;4.27;;
17714;SDS011;8977;50.902;4.314;2023-12-04T09:21:30;7.30;;;5.17;;
17714;SDS011;8977;50.902;4.314;2023-12-04T09:23:58;6.43;;;4.47;;
17714;SDS011;8977;50.902;4.314;2023-12-04T09:26:25;7.47;;;4.97;;
17714;SDS011;8977;50.902;4.314;2023-12-04T09:28:52;6.90;;;5.10;;
17714;SDS011;8977;50.902;4.314;2023-12-04T09:31:19;8.97;;;4.70;;
17714;SDS011;8977;50.902;4.314;2023-12-04T09:33:46;8.17;;;5.33;;
17714;SDS011;8977;50.902;4.314;2023-12-04T09:36:15;7.67;;;5.87;;
17714;SDS011;8977;50.902;4.314;2023-12-04T09:38:42;7.47;;;4.63;;
17714;SDS011;8977;50.902;4.314;2023-12-04T09:41:10;6.27;;;4.60;;
17714;SDS011;8977;50.902;4.314;2023-12-04T09:43:38;8.80;;;5.03;;
17714;SDS011;8977;50.902;4.314;2023-12-04T09:46:07;5.80;;;4.23;;
17714;SDS011;8977;50.902;4.314;2023-12-04T09:48:35;6.10;;;4.83;;
17714;SDS011;8977;50.902;4.314;2023-12-04T09:51:04;5.90;;;4.83;;
17714;SDS011;8977;50.902;4.314;2023-12-04T09:53:33;6.47;;;4.80;;
17714;SDS011;8977;50.902;4.314;2023-12-04T09:56:02;10.80;;;5.27;;
17714;SDS011;8977;50.902;4.314;2023-12-04T09:58:30;7.23;;;5.00;;
17714;SDS011;8977;50.902;4.314;2023-12-04T10:00:58;6.70;;;5.03;;
17714;SDS011;8977;50.902;4.314;2023-12-04T10:03:26;7.40;;;5.13;;
17714;SDS011;8977;50.902;4.314;2023-12-04T10:05:54;6.37;;;4.70;;
17714;SDS011;8977;50.902;4.314;2023-12-04T10:08:22;5.90;;;4.73;;
17714;SDS011;8977;50.902;4.314;2023-12-04T10:10:50;7.70;;;5.40;;
17714;SDS011;8977;50.902;4.314;2023-12-04T10:13:17;6.27;;;5.13;;
17714;SDS011;8977;50.902;4.314;2023-12-04T10:15:47;6.97;;;5.30;;
17714;SDS011;8977;50.902;4.314;2023-12-04T10:18:23;7.07;;;5.20;;
17714;SDS011;8977;50.902;4.314;2023-12-04T10:20:51;7.97;;;5.57;;
17714;SDS011;8977;50.902;4.314;2023-12-04T10:23:19;7.00;;;5.20;;
17714;SDS011;8977;50.902;4.314;2023-12-04T10:25:47;8.07;;;5.43;;
17714;SDS011;8977;50.902;4.314;2023-12-04T10:28:17;7.07;;;5.50;;
17714;SDS011;8977;50.902;4.314;2023-12-04T10:30:44;7.53;;;5.93;;
17714;SDS011;8977;50.902;4.314;2023-12-04T10:33:12;6.77;;;5.73;;
17714;SDS011;8977;50.902;4.314;2023-12-04T10:35:40;6.30;;;5.17;;
17714;SDS011;8977;50.902;4.314;2023-12-04T10:38:08;6.90;;;5.37;;
17714;SDS011;8977;50.902;4.314;2023-12-04T10:40:35;5.70;;;5.07;;
17714;SDS011;8977;50.902;4.314;2023-12-04T10:43:11;8.07;;;5.40;;
17714;SDS011;8977;50.902;4.314;2023-12-04T10:45:41;6.60;;;5.13;;
17714;SDS011;8977;50.902;4.314;2023-12-04T10:48:10;6.73;;;5.27;;
17714;SDS011;8977;50.902;4.314;2023-12-04T10:50:38;8.53;;;5.70;;
17714;SDS011;8977;50.902;4.314;2023-12-04T10:53:06;6.17;;;4.97;;
17714;SDS011;8977;50.902;4.314;2023-12-04T10:55:34;6.87;;;5.37;;
17714;SDS011;8977;50.902;4.314;2023-12-04T10:58:02;6.27;;;5.40;;
17714;SDS011;8977;50.902;4.314;2023-12-04T11:00:33;6.20;;;5.03;;
17714;SDS011;8977;50.902;4.314;2023-12-04T11:03:03;7.10;;;5.50;;
17714;SDS011;8977;50.902;4.314;2023-12-04T11:05:33;7.77;;;5.97;;
17714;SDS011;8977;50.902;4.314;2023-12-04T11:08:04;8.17;;;6.10;;
17714;SDS011;8977;50.902;4.314;2023-12-04T11:10:32;8.30;;;5.63;;
17714;SDS011;8977;50.902;4.314;2023-12-04T11:13:05;6.87;;;5.80;;
17714;SDS011;8977;50.902;4.314;2023-12-04T11:15:39;6.90;;;5.27;;
17714;SDS011;8977;50.902;4.314;2023-12-04T11:18:09;6.37;;;5.43;;
17714;SDS011;8977;50.902;4.314;2023-12-04T11:20:41;7.90;;;5.00;;
17714;SDS011;8977;50.902;4.314;2023-12-04T11:23:11;6.80;;;5.03;;
17714;SDS011;8977;50.902;4.314;2023-12-04T11:25:39;7.40;;;5.40;;
17714;SDS011;8977;50.902;4.314;2023-12-04T11:28:06;9.63;;;5.53;;
17714;SDS011;8977;50.902;4.314;2023-12-04T11:30:35;6.13;;;4.67;;
17714;SDS011;8977;50.902;4.314;2023-12-04T11:33:04;5.93;;;4.70;;
17714;SDS011;8977;50.902;4.314;2023-12-04T11:35:31;6.40;;;4.97;;
17714;SDS011;8977;50.902;4.314;2023-12-04T11:38:00;7.67;;;4.60;;
17714;SDS011;8977;50.902;4.314;2023-12-04T11:40:26;6.83;;;5.67;;
17714;SDS011;8977;50.902;4.314;2023-12-04T11:42:54;7.33;;;4.93;;
17714;SDS011;8977;50.902;4.314;2023-12-04T11:45:20;8.97;;;4.57;;
17714;SDS011;8977;50.902;4.314;2023-12-04T11:47:54;6.23;;;5.00;;
17714;SDS011;8977;50.902;4.314;2023-12-04T11:50:21;5.33;;;4.47;;
17714;SDS011;8977;50.902;4.314;2023-12-04T11:52:50;5.93;;;5.13;;
17714;SDS011;8977;50.902;4.314;2023-12-04T11:55:18;7.03;;;5.10;;
17714;SDS011;8977;50.902;4.314;2023-12-04T11:57:47;6.90;;;5.47;;
17714;SDS011;8977;50.902;4.314;2023-12-04T12:00:19;6.40;;;5.20;;
17714;SDS011;8977;50.902;4.314;2023-12-04T12:02:50;6.20;;;4.67;;
17714;SDS011;8977;50.902;4.314;2023-12-04T12:05:31;5.80;;;4.80;;
17714;SDS011;8977;50.902;4.314;2023-12-04T12:08:00;5.87;;;4.63;;
17714;SDS011;8977;50.902;4.314;2023-12-04T12:10:28;5.00;;;4.47;;
17714;SDS011;8977;50.902;4.314;2023-12-04T12:12:55;5.80;;;4.63;;
17714;SDS011;8977;50.902;4.314;2023-12-04T12:15:22;6.13;;;4.80;;
17714;SDS011;8977;50.902;4.314;2023-12-04T12:17:49;6.20;;;4.70;;
17714;SDS011;8977;50.902;4.314;2023-12-04T12:20:18;6.80;;;4.67;;
17714;SDS011;8977;50.902;4.314;2023-12-04T12:22:47;5.60;;;4.67;;
17714;SDS011;8977;50.902;4.314;2023-12-04T12:25:15;5.63;;;4.83;;
17714;SDS011;8977;50.902;4.314;2023-12-04T12:27:43;6.70;;;4.53;;
17714;SDS011;8977;50.902;4.314;2023-12-04T12:30:11;6.70;;;4.63;;
17714;SDS011;8977;50.902;4.314;2023-12-04T12:32:38;5.53;;;4.47;;
17714;SDS011;8977;50.902;4.314;2023-12-04T12:35:05;5.60;;;4.53;;
17714;SDS011;8977;50.902;4.314;2023-12-04T12:37:35;5.23;;;3.93;;
17714;SDS011;8977;50.902;4.314;2023-12-04T12:40:05;5.00;;;4.50;;
17714;SDS011;8977;50.902;4.314;2023-12-04T12:42:34;5.47;;;4.30;;
17714;SDS011;8977;50.902;4.314;2023-12-04T12:45:03;6.27;;;4.57;;
17714;SDS011;8977;50.902;4.314;2023-12-04T12:47:30;5.80;;;4.30;;
17714;SDS011;8977;50.902;4.314;2023-12-04T12:49:57;7.63;;;4.90;;
17714;SDS011;8977;50.902;4.314;2023-12-04T12:52:26;5.03;;;4.20;;
17714;SDS011;8977;50.902;4.314;2023-12-04T12:54:55;5.43;;;4.23;;
17714;SDS011;8977;50.902;4.314;2023-12-04T12:57:21;4.63;;;4.17;;
17714;SDS011;8977;50.902;4.314;2023-12-04T12:59:49;5.30;;;4.60;;
17714;SDS011;8977;50.902;4.314;2023-12-04T13:02:16;4.70;;;3.97;;
17714;SDS011;8977;50.902;4.314;2023-12-04T13:04:46;5.10;;;4.30;;
17714;SDS011;8977;50.902;4.314;2023-12-04T13:07:12;4.70;;;3.93;;
17714;SDS011;8977;50.902;4.314;2023-12-04T13:09:39;5.87;;;4.77;;
17714;SDS011;8977;50.902;4.314;2023-12-04T13:12:09;6.70;;;4.90;;
17714;SDS011;8977;50.902;4.314;2023-12-04T13:14:37;5.30;;;4.27;;
17714;SDS011;8977;50.902;4.314;2023-12-04T13:17:04;4.53;;;3.80;;
17714;SDS011;8977;50.902;4.314;2023-12-04T13:19:31;4.97;;;4.43;;
17714;SDS011;8977;50.902;4.314;2023-12-04T13:21:59;4.97;;;4.13;;
17714;SDS011;8977;50.902;4.314;2023-12-04T13:24:26;4.77;;;3.80;;
17714;SDS011;8977;50.902;4.314;2023-12-04T13:26:54;5.27;;;4.00;;
17714;SDS011;8977;50.902;4.314;2023-12-04T13:29:22;7.00;;;4.27;;
17714;SDS011;8977;50.902;4.314;2023-12-04T13:31:49;5.63;;;4.27;;
17714;SDS011;8977;50.902;4.314;2023-12-04T13:34:16;5.07;;;4.30;;
17714;SDS011;8977;50.902;4.314;2023-12-04T13:36:43;4.50;;;4.00;;
17714;SDS011;8977;50.902;4.314;2023-12-04T13:39:10;4.90;;;4.33;;
17714;SDS011;8977;50.902;4.314;2023-12-04T13:41:42;4.60;;;3.83;;
17714;SDS011;8977;50.902;4.314;2023-12-04T13:44:28;4.37;;;3.97;;
17714;SDS011;8977;50.902;4.314;2023-12-04T13:46:56;5.43;;;4.17;;
17714;SDS011;8977;50.902;4.314;2023-12-04T13:49:23;4.13;;;3.70;;
17714;SDS011;8977;50.902;4.314;2023-12-04T13:51:50;4.23;;;3.77;;
17714;SDS011;8977;50.902;4.314;2023-12-04T13:54:18;4.63;;;3.77;;
17714;SDS011;8977;50.902;4.314;2023-12-04T13:56:47;4.93;;;3.97;;
17714;SDS011;8977;50.902;4.314;2023-12-04T13:59:19;5.50;;;4.20;;
17714;SDS011;8977;50.902;4.314;2023-12-04T14:01:48;4.63;;;3.93;;
17714;SDS011;8977;50.902;4.314;2023-12-04T14:04:16;4.23;;;3.83;;
17714;SDS011;8977;50.902;4.314;2023-12-04T14:06:43;4.30;;;3.87;;
17714;SDS011;8977;50.902;4.314;2023-12-04T14:09:11;4.37;;;3.90;;
17714;SDS011;8977;50.902;4.314;2023-12-04T14:11:40;4.40;;;3.80;;
17714;SDS011;8977;50.902;4.314;2023-12-04T14:14:10;4.80;;;4.30;;
17714;SDS011;8977;50.902;4.314;2023-12-04T14:16:38;4.53;;;3.57;;
17714;SDS011;8977;50.902;4.314;2023-12-04T14:19:06;4.97;;;3.83;;
17714;SDS011;8977;50.902;4.314;2023-12-04T14:21:33;5.40;;;3.67;;
17714;SDS011;8977;50.902;4.314;2023-12-04T14:24:00;4.70;;;3.77;;
17714;SDS011;8977;50.902;4.314;2023-12-04T14:26:27;4.37;;;3.97;;
17714;SDS011;8977;50.902;4.314;2023-12-04T14:28:54;4.37;;;3.97;;
17714;SDS011;8977;50.902;4.314;2023-12-04T14:31:23;4.47;;;3.53;;
17714;SDS011;8977;50.902;4.314;2023-12-04T14:33:50;3.87;;;3.50;;
17714;SDS011;8977;50.902;4.314;2023-12-04T14:36:19;4.37;;;3.80;;
17714;SDS011;8977;50.902;4.314;2023-12-04T14:38:46;3.93;;;3.53;;
17714;SDS011;8977;50.902;4.314;2023-12-04T14:41:13;4.50;;;3.77;;
17714;SDS011;8977;50.902;4.314;2023-12-04T14:43:40;4.13;;;3.30;;
17714;SDS011;8977;50.902;4.314;2023-12-04T14:46:07;5.10;;;3.63;;
17714;SDS011;8977;50.902;4.314;2023-12-04T14:48:36;4.77;;;4.27;;
17714;SDS011;8977;50.902;4.314;2023-12-04T14:51:04;4.80;;;3.77;;
17714;SDS011;8977;50.902;4.314;2023-12-04T14:53:32;6.00;;;4.10;;
17714;SDS011;8977;50.902;4.314;2023-12-04T14:56:09;5.63;;;4.30;;
17714;SDS011;8977;50.902;4.314;2023-12-04T14:58:56;4.60;;;3.90;;
17714;SDS011;8977;50.902;4.314;2023-12-04T15:01:40;4.90;;;3.87;;
17714;SDS011;8977;50.902;4.314;2023-12-04T15:04:26;4.73;;;3.70;;